sensor_id;sensor_type;location;lat;lon;timestamp;P1;durP1;ratioP1;P2;durP2;ratioP2
9370;SDS011;4725;48.384;8.984;2022-12-07T00:00:51;3.20;;;2.90;;
9370;SDS011;4725;48.384;8.984;2022-12-07T00:03:18;3.40;;;3.00;;
9370;SDS011;4725;48.384;8.984;2022-12-07T00:05:45;3.50;;;3.20;;
9370;SDS011;4725;48.384;8.984;2022-12-07T00:08:12;3.47;;;2.73;;
9370;SDS011;4725;48.384;8.984;2022-12-07T00:10:40;3.53;;;3.10;;
9370;SDS011;4725;48.384;8.984;2022-12-07T00:13:07;3.87;;;3.10;;
9370;SDS011;4725;48.384;8.984;2022-12-07T00:15:34;3.80;;;3.20;;
9370;SDS011;4725;48.384;8.984;2022-12-07T00:18:01;3.23;;;2.70;;
9370;SDS011;4725;48.384;8.984;2022-12-07T00:20:28;3.03;;;2.40;;
9370;SDS011;4725;48.384;8.984;2022-12-07T00:22:56;3.33;;;2.90;;
9370;SDS011;4725;48.384;8.984;2022-12-07T00:25:23;3.80;;;3.03;;
9370;SDS011;4725;48.384;8.984;2022-12-07T00:27:51;3.20;;;2.80;;
9370;SDS011;4725;48.384;8.984;2022-12-07T00:30:20;3.80;;;2.80;;
9370;SDS011;4725;48.384;8.984;2022-12-07T00:32:47;3.07;;;2.53;;
9370;SDS011;4725;48.384;8.984;2022-12-07T00:35:14;2.93;;;2.37;;
9370;SDS011;4725;48.384;8.984;2022-12-07T00:37:41;5.10;;;3.13;;
9370;SDS011;4725;48.384;8.984;2022-12-07T00:40:08;4.73;;;2.50;;
9370;SDS011;4725;48.384;8.984;2022-12-07T00:42:36;3.43;;;2.63;;
9370;SDS011;4725;48.384;8.984;2022-12-07T00:45:05;3.23;;;2.40;;
9370;SDS011;4725;48.384;8.984;2022-12-07T00:47:32;3.63;;;2.87;;
9370;SDS011;4725;48.384;8.984;2022-12-07T00:49:59;3.47;;;2.70;;
9370;SDS011;4725;48.384;8.984;2022-12-07T00:52:26;4.13;;;2.97;;
9370;SDS011;4725;48.384;8.984;2022-12-07T00:54:53;4.20;;;3.13;;
9370;SDS011;4725;48.384;8.984;2022-12-07T00:57:20;3.67;;;2.57;;
9370;SDS011;4725;48.384;8.984;2022-12-07T00:59:47;3.00;;;2.70;;
9370;SDS011;4725;48.384;8.984;2022-12-07T01:02:16;2.90;;;2.30;;
9370;SDS011;4725;48.384;8.984;2022-12-07T01:04:43;3.20;;;2.80;;
9370;SDS011;4725;48.384;8.984;2022-12-07T01:07:10;3.33;;;2.73;;
9370;SDS011;4725;48.384;8.984;2022-12-07T01:09:37;2.97;;;2.40;;
9370;SDS011;4725;48.384;8.984;2022-12-07T01:12:04;3.23;;;2.93;;
9370;SDS011;4725;48.384;8.984;2022-12-07T01:14:31;3.60;;;2.87;;
9370;SDS011;4725;48.384;8.984;2022-12-07T01:16:58;3.87;;;3.20;;
9370;SDS011;4725;48.384;8.984;2022-12-07T01:19:26;4.33;;;2.63;;
9370;SDS011;4725;48.384;8.984;2022-12-07T01:21:53;3.43;;;3.00;;
9370;SDS011;4725;48.384;8.984;2022-12-07T01:24:21;3.53;;;3.10;;
9370;SDS011;4725;48.384;8.984;2022-12-07T01:26:48;3.27;;;2.97;;
9370;SDS011;4725;48.384;8.984;2022-12-07T01:29:15;4.70;;;3.23;;
9370;SDS011;4725;48.384;8.984;2022-12-07T01:31:42;4.33;;;3.47;;
9370;SDS011;4725;48.384;8.984;2022-12-07T01:34:09;3.80;;;3.03;;
9370;SDS011;4725;48.384;8.984;2022-12-07T01:36:38;3.50;;;3.17;;
9370;SDS011;4725;48.384;8.984;2022-12-07T01:39:05;3.97;;;3.30;;
9370;SDS011;4725;48.384;8.984;2022-12-07T01:41:34;3.50;;;3.00;;
9370;SDS011;4725;48.384;8.984;2022-12-07T01:44:08;4.77;;;3.83;;
9370;SDS011;4725;48.384;8.984;2022-12-07T01:46:46;4.83;;;3.93;;
9370;SDS011;4725;48.384;8.984;2022-12-07T01:49:16;4.30;;;3.70;;
9370;SDS011;4725;48.384;8.984;2022-12-07T01:51:49;4.57;;;3.80;;
9370;SDS011;4725;48.384;8.984;2022-12-07T01:54:23;4.37;;;3.47;;
9370;SDS011;4725;48.384;8.984;2022-12-07T01:56:51;4.30;;;3.73;;
9370;SDS011;4725;48.384;8.984;2022-12-07T01:59:21;4.57;;;3.67;;
9370;SDS011;4725;48.384;8.984;2022-12-07T02:01:51;3.57;;;3.13;;
9370;SDS011;4725;48.384;8.984;2022-12-07T02:04:19;3.93;;;3.40;;
9370;SDS011;4725;48.384;8.984;2022-12-07T02:06:46;3.73;;;3.33;;
9370;SDS011;4725;48.384;8.984;2022-12-07T02:09:15;3.43;;;3.10;;
9370;SDS011;4725;48.384;8.984;2022-12-07T02:11:42;4.57;;;3.40;;
9370;SDS011;4725;48.384;8.984;2022-12-07T02:14:09;6.37;;;3.90;;
9370;SDS011;4725;48.384;8.984;2022-12-07T02:16:38;3.60;;;3.30;;
9370;SDS011;4725;48.384;8.984;2022-12-07T02:22:16;4.47;;;3.30;;
9370;SDS011;4725;48.384;8.984;2022-12-07T02:24:57;3.13;;;2.83;;
9370;SDS011;4725;48.384;8.984;2022-12-07T02:27:36;4.40;;;3.40;;
9370;SDS011;4725;48.384;8.984;2022-12-07T02:30:11;4.10;;;3.27;;
9370;SDS011;4725;48.384;8.984;2022-12-07T02:32:44;4.43;;;3.40;;
9370;SDS011;4725;48.384;8.984;2022-12-07T02:35:17;4.17;;;3.60;;
9370;SDS011;4725;48.384;8.984;2022-12-07T02:37:50;4.73;;;3.47;;
9370;SDS011;4725;48.384;8.984;2022-12-07T02:40:26;6.03;;;3.30;;
9370;SDS011;4725;48.384;8.984;2022-12-07T02:42:58;5.27;;;3.80;;
9370;SDS011;4725;48.384;8.984;2022-12-07T02:45:31;4.23;;;3.53;;
9370;SDS011;4725;48.384;8.984;2022-12-07T02:48:00;5.87;;;3.60;;
9370;SDS011;4725;48.384;8.984;2022-12-07T02:50:28;3.90;;;2.90;;
9370;SDS011;4725;48.384;8.984;2022-12-07T02:52:55;7.53;;;3.53;;
9370;SDS011;4725;48.384;8.984;2022-12-07T02:55:26;4.20;;;3.80;;
9370;SDS011;4725;48.384;8.984;2022-12-07T02:58:06;3.53;;;2.97;;
9370;SDS011;4725;48.384;8.984;2022-12-07T03:00:52;4.60;;;3.40;;
9370;SDS011;4725;48.384;8.984;2022-12-07T03:03:26;4.30;;;3.27;;
9370;SDS011;4725;48.384;8.984;2022-12-07T03:06:04;4.43;;;3.70;;
9370;SDS011;4725;48.384;8.984;2022-12-07T03:08:38;4.70;;;3.07;;
9370;SDS011;4725;48.384;8.984;2022-12-07T03:11:12;4.77;;;3.10;;
9370;SDS011;4725;48.384;8.984;2022-12-07T03:13:42;4.77;;;3.50;;
9370;SDS011;4725;48.384;8.984;2022-12-07T03:16:15;3.47;;;2.97;;
9370;SDS011;4725;48.384;8.984;2022-12-07T03:18:45;4.63;;;3.50;;
9370;SDS011;4725;48.384;8.984;2022-12-07T03:21:17;3.80;;;3.13;;
9370;SDS011;4725;48.384;8.984;2022-12-07T03:23:48;3.33;;;2.70;;
9370;SDS011;4725;48.384;8.984;2022-12-07T03:26:18;4.93;;;3.43;;
9370;SDS011;4725;48.384;8.984;2022-12-07T03:28:49;4.23;;;3.67;;
9370;SDS011;4725;48.384;8.984;2022-12-07T03:31:21;5.00;;;4.27;;
9370;SDS011;4725;48.384;8.984;2022-12-07T03:33:53;3.67;;;3.20;;
9370;SDS011;4725;48.384;8.984;2022-12-07T03:36:27;3.83;;;3.10;;
9370;SDS011;4725;48.384;8.984;2022-12-07T03:39:00;5.20;;;3.53;;
9370;SDS011;4725;48.384;8.984;2022-12-07T03:41:33;4.60;;;3.47;;
9370;SDS011;4725;48.384;8.984;2022-12-07T03:44:02;5.53;;;3.97;;
9370;SDS011;4725;48.384;8.984;2022-12-07T03:46:34;4.70;;;4.00;;
9370;SDS011;4725;48.384;8.984;2022-12-07T03:49:06;4.33;;;3.63;;
9370;SDS011;4725;48.384;8.984;2022-12-07T03:51:38;6.70;;;3.80;;
9370;SDS011;4725;48.384;8.984;2022-12-07T03:54:10;5.10;;;3.47;;
9370;SDS011;4725;48.384;8.984;2022-12-07T03:56:45;5.67;;;3.83;;
9370;SDS011;4725;48.384;8.984;2022-12-07T03:59:13;7.70;;;4.10;;
9370;SDS011;4725;48.384;8.984;2022-12-07T04:01:43;4.57;;;3.73;;
9370;SDS011;4725;48.384;8.984;2022-12-07T04:04:11;9.23;;;3.60;;
9370;SDS011;4725;48.384;8.984;2022-12-07T04:06:38;4.57;;;4.00;;
9370;SDS011;4725;48.384;8.984;2022-12-07T04:09:05;5.53;;;4.13;;
9370;SDS011;4725;48.384;8.984;2022-12-07T04:11:32;4.00;;;3.43;;
9370;SDS011;4725;48.384;8.984;2022-12-07T04:13:59;8.00;;;4.20;;
9370;SDS011;4725;48.384;8.984;2022-12-07T04:16:44;4.87;;;4.10;;
9370;SDS011;4725;48.384;8.984;2022-12-07T04:19:11;3.90;;;3.27;;
9370;SDS011;4725;48.384;8.984;2022-12-07T04:21:39;5.83;;;4.00;;
9370;SDS011;4725;48.384;8.984;2022-12-07T04:24:06;6.27;;;4.00;;
9370;SDS011;4725;48.384;8.984;2022-12-07T04:26:33;5.17;;;3.97;;
9370;SDS011;4725;48.384;8.984;2022-12-07T04:29:00;4.47;;;3.70;;
9370;SDS011;4725;48.384;8.984;2022-12-07T04:31:27;6.87;;;4.47;;
9370;SDS011;4725;48.384;8.984;2022-12-07T04:33:56;5.17;;;4.07;;
9370;SDS011;4725;48.384;8.984;2022-12-07T04:36:23;4.77;;;3.57;;
9370;SDS011;4725;48.384;8.984;2022-12-07T04:38:52;6.60;;;4.03;;
9370;SDS011;4725;48.384;8.984;2022-12-07T04:41:20;5.50;;;3.87;;
9370;SDS011;4725;48.384;8.984;2022-12-07T04:43:52;5.40;;;4.00;;
9370;SDS011;4725;48.384;8.984;2022-12-07T04:46:20;5.47;;;4.30;;
9370;SDS011;4725;48.384;8.984;2022-12-07T04:48:47;4.83;;;3.60;;
9370;SDS011;4725;48.384;8.984;2022-12-07T04:51:16;4.50;;;3.50;;
9370;SDS011;4725;48.384;8.984;2022-12-07T04:53:46;4.27;;;3.70;;
9370;SDS011;4725;48.384;8.984;2022-12-07T04:56:13;5.37;;;3.27;;
9370;SDS011;4725;48.384;8.984;2022-12-07T04:58:41;6.77;;;3.80;;
9370;SDS011;4725;48.384;8.984;2022-12-07T05:01:08;5.47;;;3.70;;
9370;SDS011;4725;48.384;8.984;2022-12-07T05:03:35;6.83;;;4.00;;
9370;SDS011;4725;48.384;8.984;2022-12-07T05:06:03;7.43;;;3.83;;
9370;SDS011;4725;48.384;8.984;2022-12-07T05:08:32;4.33;;;3.23;;
9370;SDS011;4725;48.384;8.984;2022-12-07T05:11:00;4.93;;;3.13;;
9370;SDS011;4725;48.384;8.984;2022-12-07T05:13:27;5.40;;;3.83;;
9370;SDS011;4725;48.384;8.984;2022-12-07T05:15:54;6.33;;;3.73;;
9370;SDS011;4725;48.384;8.984;2022-12-07T05:18:21;5.30;;;4.27;;
9370;SDS011;4725;48.384;8.984;2022-12-07T05:20:48;5.47;;;3.70;;
9370;SDS011;4725;48.384;8.984;2022-12-07T05:23:16;5.53;;;4.27;;
9370;SDS011;4725;48.384;8.984;2022-12-07T05:25:46;4.60;;;3.70;;
9370;SDS011;4725;48.384;8.984;2022-12-07T05:28:13;6.47;;;4.20;;
9370;SDS011;4725;48.384;8.984;2022-12-07T05:30:40;6.03;;;4.60;;
9370;SDS011;4725;48.384;8.984;2022-12-07T05:33:07;6.30;;;5.20;;
9370;SDS011;4725;48.384;8.984;2022-12-07T05:35:34;9.50;;;5.90;;
9370;SDS011;4725;48.384;8.984;2022-12-07T05:38:02;5.70;;;4.40;;
9370;SDS011;4725;48.384;8.984;2022-12-07T05:40:29;5.90;;;4.60;;
9370;SDS011;4725;48.384;8.984;2022-12-07T05:42:58;7.70;;;4.90;;
9370;SDS011;4725;48.384;8.984;2022-12-07T05:45:25;8.97;;;5.33;;
9370;SDS011;4725;48.384;8.984;2022-12-07T05:47:52;6.50;;;4.60;;
9370;SDS011;4725;48.384;8.984;2022-12-07T05:50:19;7.60;;;4.87;;
9370;SDS011;4725;48.384;8.984;2022-12-07T05:52:46;8.03;;;5.80;;
9370;SDS011;4725;48.384;8.984;2022-12-07T05:55:13;6.90;;;5.40;;
9370;SDS011;4725;48.384;8.984;2022-12-07T05:57:40;7.70;;;5.43;;
9370;SDS011;4725;48.384;8.984;2022-12-07T06:00:29;7.23;;;5.43;;
9370;SDS011;4725;48.384;8.984;2022-12-07T06:02:55;9.43;;;6.27;;
9370;SDS011;4725;48.384;8.984;2022-12-07T06:05:22;8.77;;;6.30;;
9370;SDS011;4725;48.384;8.984;2022-12-07T06:07:49;12.17;;;6.60;;
9370;SDS011;4725;48.384;8.984;2022-12-07T06:10:16;10.80;;;5.80;;
9370;SDS011;4725;48.384;8.984;2022-12-07T06:12:43;11.47;;;6.67;;
9370;SDS011;4725;48.384;8.984;2022-12-07T06:15:11;12.33;;;6.90;;
9370;SDS011;4725;48.384;8.984;2022-12-07T06:17:40;7.93;;;5.37;;
9370;SDS011;4725;48.384;8.984;2022-12-07T06:20:07;7.20;;;5.80;;
9370;SDS011;4725;48.384;8.984;2022-12-07T06:22:34;10.47;;;5.50;;
9370;SDS011;4725;48.384;8.984;2022-12-07T06:25:01;10.33;;;5.30;;
9370;SDS011;4725;48.384;8.984;2022-12-07T06:27:28;10.00;;;5.70;;
9370;SDS011;4725;48.384;8.984;2022-12-07T06:29:59;10.83;;;5.60;;
9370;SDS011;4725;48.384;8.984;2022-12-07T06:32:31;8.57;;;5.60;;
9370;SDS011;4725;48.384;8.984;2022-12-07T06:34:59;8.33;;;5.80;;
9370;SDS011;4725;48.384;8.984;2022-12-07T06:37:26;11.10;;;5.80;;
9370;SDS011;4725;48.384;8.984;2022-12-07T06:39:53;15.60;;;6.00;;
9370;SDS011;4725;48.384;8.984;2022-12-07T06:42:23;10.03;;;6.13;;
9370;SDS011;4725;48.384;8.984;2022-12-07T06:44:50;11.63;;;5.97;;
9370;SDS011;4725;48.384;8.984;2022-12-07T06:47:18;8.60;;;6.00;;
9370;SDS011;4725;48.384;8.984;2022-12-07T06:49:45;7.73;;;6.07;;
9370;SDS011;4725;48.384;8.984;2022-12-07T06:52:14;14.27;;;6.03;;
9370;SDS011;4725;48.384;8.984;2022-12-07T06:54:42;12.13;;;6.30;;
9370;SDS011;4725;48.384;8.984;2022-12-07T06:57:10;12.60;;;5.97;;
9370;SDS011;4725;48.384;8.984;2022-12-07T06:59:37;8.43;;;6.13;;
9370;SDS011;4725;48.384;8.984;2022-12-07T07:02:04;9.30;;;5.40;;
9370;SDS011;4725;48.384;8.984;2022-12-07T07:04:31;8.20;;;5.10;;
9370;SDS011;4725;48.384;8.984;2022-12-07T07:06:58;7.53;;;5.13;;
9370;SDS011;4725;48.384;8.984;2022-12-07T07:09:27;10.70;;;5.40;;
9370;SDS011;4725;48.384;8.984;2022-12-07T07:11:54;7.80;;;4.90;;
9370;SDS011;4725;48.384;8.984;2022-12-07T07:14:21;7.90;;;5.20;;
9370;SDS011;4725;48.384;8.984;2022-12-07T07:16:48;6.63;;;4.40;;
9370;SDS011;4725;48.384;8.984;2022-12-07T07:19:15;6.37;;;4.73;;
9370;SDS011;4725;48.384;8.984;2022-12-07T07:21:42;6.03;;;4.57;;
9370;SDS011;4725;48.384;8.984;2022-12-07T07:24:09;7.20;;;4.63;;
9370;SDS011;4725;48.384;8.984;2022-12-07T07:26:37;7.73;;;4.53;;
9370;SDS011;4725;48.384;8.984;2022-12-07T07:29:04;6.37;;;4.90;;
9370;SDS011;4725;48.384;8.984;2022-12-07T07:31:31;5.47;;;4.20;;
9370;SDS011;4725;48.384;8.984;2022-12-07T07:34:00;7.27;;;5.03;;
9370;SDS011;4725;48.384;8.984;2022-12-07T07:36:27;7.80;;;5.43;;
9370;SDS011;4725;48.384;8.984;2022-12-07T07:38:54;8.27;;;5.20;;
9370;SDS011;4725;48.384;8.984;2022-12-07T07:41:21;7.87;;;5.63;;
9370;SDS011;4725;48.384;8.984;2022-12-07T07:43:49;8.90;;;5.20;;
9370;SDS011;4725;48.384;8.984;2022-12-07T07:46:16;8.40;;;4.93;;
9370;SDS011;4725;48.384;8.984;2022-12-07T07:48:43;6.13;;;5.20;;
9370;SDS011;4725;48.384;8.984;2022-12-07T07:51:10;6.90;;;5.00;;
9370;SDS011;4725;48.384;8.984;2022-12-07T07:53:37;7.30;;;5.53;;
9370;SDS011;4725;48.384;8.984;2022-12-07T07:56:04;5.93;;;4.50;;
9370;SDS011;4725;48.384;8.984;2022-12-07T07:58:31;7.33;;;4.83;;
9370;SDS011;4725;48.384;8.984;2022-12-07T08:01:04;7.63;;;5.37;;
9370;SDS011;4725;48.384;8.984;2022-12-07T08:03:31;8.10;;;5.30;;
9370;SDS011;4725;48.384;8.984;2022-12-07T08:05:58;7.10;;;5.03;;
9370;SDS011;4725;48.384;8.984;2022-12-07T08:08:25;9.23;;;6.00;;
9370;SDS011;4725;48.384;8.984;2022-12-07T08:10:52;6.80;;;5.13;;
9370;SDS011;4725;48.384;8.984;2022-12-07T08:13:19;9.27;;;6.27;;
9370;SDS011;4725;48.384;8.984;2022-12-07T08:15:47;11.00;;;6.50;;
9370;SDS011;4725;48.384;8.984;2022-12-07T08:18:15;6.43;;;5.17;;
9370;SDS011;4725;48.384;8.984;2022-12-07T08:20:42;6.57;;;5.53;;
9370;SDS011;4725;48.384;8.984;2022-12-07T08:23:10;7.23;;;4.73;;
9370;SDS011;4725;48.384;8.984;2022-12-07T08:25:37;6.63;;;4.83;;
9370;SDS011;4725;48.384;8.984;2022-12-07T08:28:04;6.63;;;4.90;;
9370;SDS011;4725;48.384;8.984;2022-12-07T08:30:31;8.60;;;4.70;;
9370;SDS011;4725;48.384;8.984;2022-12-07T08:32:59;7.10;;;5.20;;
9370;SDS011;4725;48.384;8.984;2022-12-07T08:35:27;6.00;;;4.60;;
9370;SDS011;4725;48.384;8.984;2022-12-07T08:37:54;7.17;;;5.10;;
9370;SDS011;4725;48.384;8.984;2022-12-07T08:40:22;5.90;;;4.80;;
9370;SDS011;4725;48.384;8.984;2022-12-07T08:42:50;7.23;;;4.90;;
9370;SDS011;4725;48.384;8.984;2022-12-07T08:45:17;5.73;;;4.70;;
9370;SDS011;4725;48.384;8.984;2022-12-07T08:47:48;6.73;;;4.37;;
9370;SDS011;4725;48.384;8.984;2022-12-07T08:50:19;6.17;;;4.90;;
9370;SDS011;4725;48.384;8.984;2022-12-07T08:52:49;8.83;;;4.37;;
9370;SDS011;4725;48.384;8.984;2022-12-07T08:55:18;6.00;;;4.73;;
9370;SDS011;4725;48.384;8.984;2022-12-07T08:57:46;9.10;;;5.07;;
9370;SDS011;4725;48.384;8.984;2022-12-07T09:00:14;6.57;;;5.57;;
9370;SDS011;4725;48.384;8.984;2022-12-07T09:02:42;6.47;;;4.93;;
9370;SDS011;4725;48.384;8.984;2022-12-07T09:05:10;7.03;;;5.57;;
9370;SDS011;4725;48.384;8.984;2022-12-07T09:07:36;6.70;;;5.57;;
9370;SDS011;4725;48.384;8.984;2022-12-07T09:10:06;6.67;;;5.00;;
9370;SDS011;4725;48.384;8.984;2022-12-07T09:12:33;6.87;;;5.30;;
9370;SDS011;4725;48.384;8.984;2022-12-07T09:15:00;8.27;;;5.83;;
9370;SDS011;4725;48.384;8.984;2022-12-07T09:17:31;6.47;;;5.60;;
9370;SDS011;4725;48.384;8.984;2022-12-07T09:19:59;6.63;;;5.93;;
9370;SDS011;4725;48.384;8.984;2022-12-07T09:22:28;6.17;;;4.87;;
9370;SDS011;4725;48.384;8.984;2022-12-07T09:24:55;7.53;;;5.60;;
9370;SDS011;4725;48.384;8.984;2022-12-07T09:27:23;7.73;;;5.73;;
9370;SDS011;4725;48.384;8.984;2022-12-07T09:29:50;5.67;;;4.50;;
9370;SDS011;4725;48.384;8.984;2022-12-07T09:32:17;6.03;;;4.70;;
9370;SDS011;4725;48.384;8.984;2022-12-07T09:34:45;8.50;;;4.77;;
9370;SDS011;4725;48.384;8.984;2022-12-07T09:37:12;6.33;;;4.90;;
9370;SDS011;4725;48.384;8.984;2022-12-07T09:39:39;5.07;;;3.97;;
9370;SDS011;4725;48.384;8.984;2022-12-07T09:42:06;6.93;;;4.57;;
9370;SDS011;4725;48.384;8.984;2022-12-07T09:44:39;6.77;;;4.63;;
9370;SDS011;4725;48.384;8.984;2022-12-07T09:47:07;5.43;;;4.10;;
9370;SDS011;4725;48.384;8.984;2022-12-07T09:49:36;5.20;;;4.13;;
9370;SDS011;4725;48.384;8.984;2022-12-07T09:52:03;6.33;;;4.43;;
9370;SDS011;4725;48.384;8.984;2022-12-07T09:54:46;6.23;;;3.97;;
9370;SDS011;4725;48.384;8.984;2022-12-07T09:57:14;4.70;;;4.17;;
9370;SDS011;4725;48.384;8.984;2022-12-07T09:59:43;6.60;;;4.13;;
9370;SDS011;4725;48.384;8.984;2022-12-07T10:02:22;4.90;;;3.80;;
9370;SDS011;4725;48.384;8.984;2022-12-07T10:04:53;4.83;;;3.90;;
9370;SDS011;4725;48.384;8.984;2022-12-07T10:07:20;4.90;;;3.70;;
9370;SDS011;4725;48.384;8.984;2022-12-07T10:09:47;8.50;;;3.57;;
9370;SDS011;4725;48.384;8.984;2022-12-07T10:12:14;6.63;;;3.70;;
9370;SDS011;4725;48.384;8.984;2022-12-07T10:14:52;5.57;;;3.80;;
9370;SDS011;4725;48.384;8.984;2022-12-07T10:17:28;4.97;;;3.80;;
9370;SDS011;4725;48.384;8.984;2022-12-07T10:22:56;5.53;;;3.73;;
9370;SDS011;4725;48.384;8.984;2022-12-07T10:25:26;4.40;;;3.90;;
9370;SDS011;4725;48.384;8.984;2022-12-07T10:28:02;4.33;;;3.33;;
9370;SDS011;4725;48.384;8.984;2022-12-07T10:30:51;4.50;;;3.23;;
9370;SDS011;4725;48.384;8.984;2022-12-07T10:36:19;5.10;;;4.20;;
9370;SDS011;4725;48.384;8.984;2022-12-07T10:38:49;4.87;;;3.80;;
9370;SDS011;4725;48.384;8.984;2022-12-07T10:41:17;6.23;;;4.60;;
9370;SDS011;4725;48.384;8.984;2022-12-07T10:43:52;4.63;;;3.40;;
9370;SDS011;4725;48.384;8.984;2022-12-07T10:46:32;5.07;;;3.40;;
9370;SDS011;4725;48.384;8.984;2022-12-07T10:52:18;8.93;;;3.70;;
9370;SDS011;4725;48.384;8.984;2022-12-07T10:54:58;3.67;;;3.13;;
9370;SDS011;4725;48.384;8.984;2022-12-07T10:57:37;4.30;;;3.23;;
9370;SDS011;4725;48.384;8.984;2022-12-07T11:00:16;2.90;;;2.60;;
9370;SDS011;4725;48.384;8.984;2022-12-07T11:05:52;4.10;;;3.23;;
9370;SDS011;4725;48.384;8.984;2022-12-07T11:08:23;3.23;;;2.93;;
9370;SDS011;4725;48.384;8.984;2022-12-07T11:11:04;3.60;;;2.90;;
9370;SDS011;4725;48.384;8.984;2022-12-07T11:13:37;4.37;;;3.20;;
9370;SDS011;4725;48.384;8.984;2022-12-07T11:16:19;3.33;;;3.03;;
9370;SDS011;4725;48.384;8.984;2022-12-07T11:19:00;3.37;;;3.07;;
9370;SDS011;4725;48.384;8.984;2022-12-07T11:21:51;3.70;;;2.80;;
9370;SDS011;4725;48.384;8.984;2022-12-07T11:24:24;3.30;;;2.70;;
9370;SDS011;4725;48.384;8.984;2022-12-07T11:27:00;6.07;;;4.70;;
9370;SDS011;4725;48.384;8.984;2022-12-07T11:29:42;8.53;;;5.70;;
9370;SDS011;4725;48.384;8.984;2022-12-07T11:32:28;6.93;;;5.10;;
9370;SDS011;4725;48.384;8.984;2022-12-07T11:35:18;13.03;;;9.27;;
9370;SDS011;4725;48.384;8.984;2022-12-07T11:37:55;12.17;;;7.03;;
9370;SDS011;4725;48.384;8.984;2022-12-07T11:40:25;6.33;;;4.27;;
9370;SDS011;4725;48.384;8.984;2022-12-07T11:42:57;11.70;;;4.87;;
9370;SDS011;4725;48.384;8.984;2022-12-07T11:45:28;5.50;;;4.33;;
9370;SDS011;4725;48.384;8.984;2022-12-07T11:47:59;12.90;;;7.37;;
9370;SDS011;4725;48.384;8.984;2022-12-07T11:50:32;11.23;;;7.10;;
9370;SDS011;4725;48.384;8.984;2022-12-07T11:53:05;9.33;;;6.40;;
9370;SDS011;4725;48.384;8.984;2022-12-07T11:55:41;8.73;;;5.43;;
9370;SDS011;4725;48.384;8.984;2022-12-07T11:58:19;8.30;;;6.70;;
9370;SDS011;4725;48.384;8.984;2022-12-07T12:00:55;7.47;;;5.03;;
9370;SDS011;4725;48.384;8.984;2022-12-07T12:03:35;7.47;;;4.80;;
9370;SDS011;4725;48.384;8.984;2022-12-07T12:06:06;7.83;;;4.97;;
9370;SDS011;4725;48.384;8.984;2022-12-07T12:08:35;6.57;;;4.70;;
9370;SDS011;4725;48.384;8.984;2022-12-07T12:11:08;4.40;;;3.03;;
9370;SDS011;4725;48.384;8.984;2022-12-07T12:13:55;4.33;;;3.67;;
9370;SDS011;4725;48.384;8.984;2022-12-07T12:19:32;4.57;;;3.67;;
9370;SDS011;4725;48.384;8.984;2022-12-07T12:22:03;4.60;;;3.87;;
9370;SDS011;4725;48.384;8.984;2022-12-07T12:24:40;5.47;;;4.57;;
9370;SDS011;4725;48.384;8.984;2022-12-07T12:27:09;10.37;;;6.63;;
9370;SDS011;4725;48.384;8.984;2022-12-07T12:29:50;4.13;;;3.73;;
9370;SDS011;4725;48.384;8.984;2022-12-07T12:32:21;5.53;;;3.10;;
9370;SDS011;4725;48.384;8.984;2022-12-07T12:35:00;3.40;;;3.03;;
9370;SDS011;4725;48.384;8.984;2022-12-07T12:37:48;6.67;;;4.20;;
9370;SDS011;4725;48.384;8.984;2022-12-07T12:58:22;4.70;;;3.00;;
9370;SDS011;4725;48.384;8.984;2022-12-07T13:03:57;3.33;;;2.77;;
9370;SDS011;4725;48.384;8.984;2022-12-07T13:06:34;3.33;;;2.60;;
9370;SDS011;4725;48.384;8.984;2022-12-07T13:09:03;2.87;;;2.27;;
9370;SDS011;4725;48.384;8.984;2022-12-07T13:11:33;3.10;;;2.80;;
9370;SDS011;4725;48.384;8.984;2022-12-07T13:17:08;3.67;;;2.60;;
9370;SDS011;4725;48.384;8.984;2022-12-07T13:25:31;3.23;;;2.80;;
9370;SDS011;4725;48.384;8.984;2022-12-07T13:28:09;4.00;;;3.07;;
9370;SDS011;4725;48.384;8.984;2022-12-07T13:30:43;7.50;;;2.70;;
9370;SDS011;4725;48.384;8.984;2022-12-07T13:33:14;3.80;;;3.13;;
9370;SDS011;4725;48.384;8.984;2022-12-07T13:35:43;4.20;;;3.47;;
9370;SDS011;4725;48.384;8.984;2022-12-07T13:38:20;3.20;;;2.77;;
9370;SDS011;4725;48.384;8.984;2022-12-07T13:41:01;3.63;;;3.00;;
9370;SDS011;4725;48.384;8.984;2022-12-07T13:43:31;2.87;;;2.57;;
9370;SDS011;4725;48.384;8.984;2022-12-07T13:45:58;3.97;;;2.90;;
9370;SDS011;4725;48.384;8.984;2022-12-07T13:48:28;6.27;;;2.30;;
9370;SDS011;4725;48.384;8.984;2022-12-07T13:50:59;4.40;;;3.00;;
9370;SDS011;4725;48.384;8.984;2022-12-07T13:53:28;3.33;;;3.00;;
9370;SDS011;4725;48.384;8.984;2022-12-07T13:55:56;3.93;;;3.03;;
9370;SDS011;4725;48.384;8.984;2022-12-07T13:58:33;3.20;;;2.90;;
9370;SDS011;4725;48.384;8.984;2022-12-07T14:01:02;5.60;;;3.87;;
9370;SDS011;4725;48.384;8.984;2022-12-07T14:03:31;12.43;;;8.10;;
9370;SDS011;4725;48.384;8.984;2022-12-07T14:09:05;5.80;;;3.60;;
9370;SDS011;4725;48.384;8.984;2022-12-07T14:11:34;3.93;;;3.53;;
9370;SDS011;4725;48.384;8.984;2022-12-07T14:14:03;6.97;;;4.80;;
9370;SDS011;4725;48.384;8.984;2022-12-07T14:16:32;4.90;;;4.20;;
9370;SDS011;4725;48.384;8.984;2022-12-07T14:19:02;3.73;;;3.43;;
9370;SDS011;4725;48.384;8.984;2022-12-07T14:21:30;3.83;;;3.23;;
9370;SDS011;4725;48.384;8.984;2022-12-07T14:24:06;4.30;;;3.90;;
9370;SDS011;4725;48.384;8.984;2022-12-07T14:26:36;6.50;;;4.37;;
9370;SDS011;4725;48.384;8.984;2022-12-07T14:29:31;6.13;;;5.10;;
9370;SDS011;4725;48.384;8.984;2022-12-07T14:32:10;6.80;;;4.47;;
9370;SDS011;4725;48.384;8.984;2022-12-07T14:34:53;7.10;;;5.00;;
9370;SDS011;4725;48.384;8.984;2022-12-07T14:37:25;5.00;;;4.50;;
9370;SDS011;4725;48.384;8.984;2022-12-07T14:39:53;7.53;;;4.93;;
9370;SDS011;4725;48.384;8.984;2022-12-07T14:42:20;5.57;;;4.40;;
9370;SDS011;4725;48.384;8.984;2022-12-07T14:44:52;4.80;;;3.70;;
9370;SDS011;4725;48.384;8.984;2022-12-07T14:47:19;4.87;;;3.90;;
9370;SDS011;4725;48.384;8.984;2022-12-07T14:49:46;7.47;;;3.67;;
9370;SDS011;4725;48.384;8.984;2022-12-07T14:52:14;6.50;;;4.77;;
9370;SDS011;4725;48.384;8.984;2022-12-07T14:54:43;13.70;;;7.00;;
9370;SDS011;4725;48.384;8.984;2022-12-07T14:57:10;37.37;;;18.30;;
9370;SDS011;4725;48.384;8.984;2022-12-07T14:59:37;11.83;;;7.97;;
9370;SDS011;4725;48.384;8.984;2022-12-07T15:02:06;7.30;;;5.40;;
9370;SDS011;4725;48.384;8.984;2022-12-07T15:04:35;10.87;;;6.30;;
9370;SDS011;4725;48.384;8.984;2022-12-07T15:07:03;3.43;;;2.83;;
9370;SDS011;4725;48.384;8.984;2022-12-07T15:09:32;3.30;;;3.00;;
9370;SDS011;4725;48.384;8.984;2022-12-07T15:11:59;4.03;;;2.67;;
9370;SDS011;4725;48.384;8.984;2022-12-07T15:14:26;3.60;;;3.10;;
9370;SDS011;4725;48.384;8.984;2022-12-07T15:16:53;3.77;;;3.20;;
9370;SDS011;4725;48.384;8.984;2022-12-07T15:19:22;4.73;;;3.27;;
9370;SDS011;4725;48.384;8.984;2022-12-07T15:21:51;3.03;;;2.73;;
9370;SDS011;4725;48.384;8.984;2022-12-07T15:24:19;4.97;;;2.83;;
9370;SDS011;4725;48.384;8.984;2022-12-07T15:26:46;3.43;;;2.90;;
9370;SDS011;4725;48.384;8.984;2022-12-07T15:29:13;3.90;;;3.03;;
9370;SDS011;4725;48.384;8.984;2022-12-07T15:31:41;5.77;;;3.10;;
9370;SDS011;4725;48.384;8.984;2022-12-07T15:34:09;3.50;;;2.97;;
9370;SDS011;4725;48.384;8.984;2022-12-07T15:36:37;3.47;;;3.00;;
9370;SDS011;4725;48.384;8.984;2022-12-07T15:39:04;3.33;;;2.60;;
9370;SDS011;4725;48.384;8.984;2022-12-07T15:41:31;3.90;;;3.10;;
9370;SDS011;4725;48.384;8.984;2022-12-07T15:43:58;3.93;;;2.97;;
9370;SDS011;4725;48.384;8.984;2022-12-07T15:46:42;3.63;;;2.67;;
9370;SDS011;4725;48.384;8.984;2022-12-07T15:49:11;4.77;;;2.90;;
9370;SDS011;4725;48.384;8.984;2022-12-07T15:51:41;3.63;;;3.20;;
9370;SDS011;4725;48.384;8.984;2022-12-07T15:54:11;3.47;;;2.77;;
9370;SDS011;4725;48.384;8.984;2022-12-07T15:56:42;4.20;;;3.33;;
9370;SDS011;4725;48.384;8.984;2022-12-07T15:59:09;3.67;;;3.00;;
9370;SDS011;4725;48.384;8.984;2022-12-07T16:01:36;5.33;;;3.07;;
9370;SDS011;4725;48.384;8.984;2022-12-07T16:04:03;7.20;;;5.23;;
9370;SDS011;4725;48.384;8.984;2022-12-07T16:06:30;9.97;;;6.27;;
9370;SDS011;4725;48.384;8.984;2022-12-07T16:08:58;5.63;;;4.30;;
9370;SDS011;4725;48.384;8.984;2022-12-07T16:11:25;5.20;;;3.90;;
9370;SDS011;4725;48.384;8.984;2022-12-07T16:13:52;3.30;;;3.00;;
9370;SDS011;4725;48.384;8.984;2022-12-07T16:16:19;4.33;;;3.20;;
9370;SDS011;4725;48.384;8.984;2022-12-07T16:18:47;6.00;;;3.90;;
9370;SDS011;4725;48.384;8.984;2022-12-07T16:21:15;8.90;;;3.90;;
9370;SDS011;4725;48.384;8.984;2022-12-07T16:23:43;5.50;;;3.80;;